CW0214 Abrantes PT current weather conditions

sailwx.info

Wind from 277 at 0 knots gusting 5

Air temperature 16.7° C
Dewpoint 10.5° C

Last reported at 2019-Oct-15 20:04 UTC.
Time now 2019-Oct-15 21:01 UTC

Location: N 39°28' W 008°12'.
View on Google Maps.

See reports from other nearby stations

  
Tides and Currents Weather Stations Pressure Air Temp Water Temp Dewpoint Dewpoint Depression Visibility Wind Speed Wind Dir Waves Ship Positions
date/time (UTC)wind fromknots sea level pressurealtimeterstation pressurevisibilityair tempwater tempwave heightnotes
2019-Oct-15 20:04 277 0 gusting 5 16.7
2019-Oct-15 19:59 236 0 gusting 4 16.7
2019-Oct-15 19:54 225 16.7
2019-Oct-15 19:49 225 16.7
2019-Oct-15 19:44 225 0 gusting 4 16.7
2019-Oct-15 19:39 242 2 gusting 6 16.7
2019-Oct-15 19:34 251 16.7
2019-Oct-15 19:29 267 16.7
2019-Oct-15 19:24 268 0 gusting 2 17.2
2019-Oct-15 19:19 238 0 gusting 5 17.2
2019-Oct-15 19:14 223 0 gusting 4 17.2
2019-Oct-15 19:09 258 0 gusting 4 17.2
2019-Oct-15 19:04 260 2 gusting 6 17.2
2019-Oct-15 18:59 242 17.2
2019-Oct-15 18:54 234 0 gusting 7 17.2
2019-Oct-15 18:49 243 2 gusting 5 17.2
2019-Oct-15 18:44 254 17.8
2019-Oct-15 18:39 222 2 gusting 6 17.8
2019-Oct-15 18:34 242 1 gusting 4 17.8
2019-Oct-15 18:29 234 1 gusting 6 17.8
2019-Oct-15 18:24 238 1 gusting 4 17.8
2019-Oct-15 18:19 238 3 gusting 6 17.8
2019-Oct-15 18:14 226 2 gusting 5 17.8
2019-Oct-15 18:09 228 4 gusting 6 17.8
2019-Oct-15 18:04 220 2 gusting 5 18.3
2019-Oct-15 17:59 226 2 gusting 5 18.3
2019-Oct-15 17:54 227 1 gusting 5 18.3
2019-Oct-15 17:49 226 4 gusting 6 18.3
2019-Oct-15 17:44 232 4 gusting 6 18.3
2019-Oct-15 17:39 224 4 gusting 7 18.9
2019-Oct-15 17:34 227 5 gusting 8 18.9
2019-Oct-15 17:29 228 3 gusting 8 18.9
2019-Oct-15 17:24 222 5 gusting 8 19.4
2019-Oct-15 17:19 234 5 gusting 10 19.4
2019-Oct-15 17:14 209 4 gusting 8 19.4
2019-Oct-15 17:09 236 2 gusting 8 20.0
2019-Oct-15 17:04 225 3 gusting 10 20.0
2019-Oct-15 16:59 239 1 gusting 6 20.0
2019-Oct-15 16:54 198 4 gusting 10 20.0
2019-Oct-15 16:49 217 3 gusting 8 20.0
2019-Oct-15 16:44 234 2 gusting 8 20.0
2019-Oct-15 16:39 229 3 gusting 6 20.0
2019-Oct-15 16:34 214 4 gusting 7 20.0
2019-Oct-15 16:29 206 5 gusting 7 20.0
2019-Oct-15 16:24 216 5 gusting 7 20.0
2019-Oct-15 16:19 182 5 gusting 10 20.0
2019-Oct-15 16:14 239 5 gusting 10 20.6
2019-Oct-15 16:09 249 5 gusting 10 20.6
2019-Oct-15 16:04 223 3 gusting 10 20.6
2019-Oct-15 15:59 192 5 gusting 8 20.6
2019-Oct-15 15:54 228 4 gusting 8 20.6
2019-Oct-15 15:49 238 1 gusting 7 20.6
2019-Oct-15 15:44 229 6 gusting 12 20.6
2019-Oct-15 15:39 203 5 gusting 10 20.6
2019-Oct-15 15:34 241 3 gusting 10 20.6
2019-Oct-15 15:29 194 6 gusting 15 20.6
2019-Oct-15 15:24 190 5 gusting 8 20.6
2019-Oct-15 15:19 186 2 gusting 7 20.6
2019-Oct-15 15:14 205 4 gusting 10 20.6
2019-Oct-15 15:09 240 2 gusting 6 20.6
2019-Oct-15 15:04 221 2 gusting 8 20.6
2019-Oct-15 14:59 186 1 gusting 7 20.6
2019-Oct-15 14:54 208 2 gusting 8 20.6
2019-Oct-15 14:49 216 2 gusting 10 20.6
2019-Oct-15 14:44 202 3 gusting 7 20.6
2019-Oct-15 14:39 230 5 gusting 10 20.6
2019-Oct-15 14:34 239 4 gusting 10 20.6
2019-Oct-15 14:29 251 4 gusting 12 20.6
2019-Oct-15 14:24 269 1 gusting 10 20.6
2019-Oct-15 14:19 247 3 gusting 8 20.6
2019-Oct-15 14:14 258 1 gusting 6 20.6
2019-Oct-15 14:09 216 4 gusting 7 21.1
2019-Oct-15 14:04 197 2 gusting 10 21.1
2019-Oct-15 13:59 231 1 gusting 7 21.1
2019-Oct-15 13:54 218 0 gusting 5 21.1
2019-Oct-15 13:49 288 3 gusting 8 20.6
2019-Oct-15 13:44 191 0 gusting 4 20.6
2019-Oct-15 13:39 242 2 gusting 5 20.6
2019-Oct-15 13:34 190 1 gusting 5 20.0
2019-Oct-15 13:29 212 2 gusting 10 20.6
2019-Oct-15 13:24 205 5 gusting 10 20.6
2019-Oct-15 13:19 222 4 gusting 10 20.6
2019-Oct-15 13:14 222 4 gusting 11 20.6
2019-Oct-15 13:09 194 2 gusting 8 20.0
2019-Oct-15 13:04 175 1 gusting 7 20.0
2019-Oct-15 12:59 208 4 gusting 7 20.0
2019-Oct-15 12:54 241 20.0
2019-Oct-15 12:49 266 4 gusting 10 20.0
2019-Oct-15 12:44 223 4 gusting 10 20.0
2019-Oct-15 12:39 252 4 gusting 7 19.4
2019-Oct-15 12:34 269 1 gusting 5 19.4
2019-Oct-15 12:29 229 2 gusting 6 19.4
2019-Oct-15 12:24 258 1 gusting 6 19.4
2019-Oct-15 12:19 273 2 gusting 8 19.4
2019-Oct-15 12:14 236 4 gusting 5 19.4
2019-Oct-15 12:09 244 1 gusting 7 19.4
2019-Oct-15 12:04 273 1 gusting 7 18.9
2019-Oct-15 11:59 169 2 gusting 5 19.4
2019-Oct-15 11:54 279 2 gusting 6 18.9
2019-Oct-15 11:49 257 0 gusting 6 18.9
2019-Oct-15 11:44 185 2 gusting 6 18.3
2019-Oct-15 11:39 186 4 gusting 7 18.9
2019-Oct-15 11:34 173 4 gusting 10 18.3
2019-Oct-15 11:29 203 4 gusting 7 18.9
2019-Oct-15 11:24 328 18.3
2019-Oct-15 11:19 328 18.3
2019-Oct-15 11:14 327 0 gusting 5 17.8
2019-Oct-15 11:09 324 0 gusting 2 17.8
2019-Oct-15 11:04 323 17.8
2019-Oct-15 10:59 324 17.2
2019-Oct-15 10:54 324 0 gusting 5 16.7
2019-Oct-15 10:49 304 1 gusting 6 16.7
2019-Oct-15 10:44 355 0 gusting 5 16.7
2019-Oct-15 10:39 037 16.7
2019-Oct-15 10:34 038 16.7
2019-Oct-15 10:29 038 16.1
2019-Oct-15 10:24 038 0 gusting 2 16.1
2019-Oct-15 10:19 038 15.6
2019-Oct-15 10:14 038 15.6
2019-Oct-15 10:09 038 15.6
2019-Oct-15 10:04 038 15.0
2019-Oct-15 09:59 038 15.0
2019-Oct-15 09:54 038 14.4
2019-Oct-15 09:49 038 13.3
2019-Oct-15 09:44 038 13.3
2019-Oct-15 09:39 038 13.3
2019-Oct-15 09:34 033 13.3
2019-Oct-15 09:29 033 13.3
2019-Oct-15 09:24 029 12.8
2019-Oct-15 09:19 029 12.2
2019-Oct-15 09:14 028 0 gusting 2 12.2
2019-Oct-15 09:09 017 0 gusting 1 12.2
2019-Oct-15 09:04 017 12.2
2019-Oct-15 08:59 016 12.2
2019-Oct-15 08:54 016 12.2
2019-Oct-15 08:49 016 12.2
2019-Oct-15 08:44 016 11.7
2019-Oct-15 08:39 016 11.7
2019-Oct-15 08:34 083 0 gusting 4 11.7
2019-Oct-15 08:29 090 11.1
2019-Oct-15 08:24 094 10.6
2019-Oct-15 08:19 094 10.6
2019-Oct-15 08:14 094 10.6
2019-Oct-15 08:09 094 10.6
2019-Oct-15 08:04 094 10.0
2019-Oct-15 07:59 094 10.0
2019-Oct-15 07:54 094 9.4
2019-Oct-15 07:49 094 1 gusting 2 9.4
2019-Oct-15 07:44 094 0 gusting 2 9.4
2019-Oct-15 07:39 094 9.4
2019-Oct-15 07:34 094 9.4
2019-Oct-15 07:29 094 0 gusting 2 8.9
2019-Oct-15 07:24 095 1 gusting 4 8.9
2019-Oct-15 07:19 107 2 gusting 5 8.9
2019-Oct-15 07:14 110 1 gusting 4 8.9
2019-Oct-15 07:09 111 2 gusting 4 8.9
2019-Oct-15 07:04 113 0 gusting 4 8.9
2019-Oct-15 06:59 113 8.9
2019-Oct-15 06:54 113 8.9
2019-Oct-15 06:49 113 8.9
2019-Oct-15 06:44 113 8.9
2019-Oct-15 06:39 113 8.9
2019-Oct-15 06:34 113 8.9
2019-Oct-15 06:29 119 8.9
2019-Oct-15 06:24 121 8.9
2019-Oct-15 06:19 121 8.9
2019-Oct-15 06:14 121 8.9
2019-Oct-15 06:09 121 0 gusting 1 8.9
2019-Oct-15 06:04 121 1 gusting 2 8.9
2019-Oct-15 05:59 121 8.9
2019-Oct-15 05:54 121 8.9
2019-Oct-15 05:49 121 8.9
2019-Oct-15 05:44 121 8.9
2019-Oct-15 05:39 121 9.4
2019-Oct-15 05:34 121 9.4
2019-Oct-15 05:29 121 9.4
2019-Oct-15 05:24 121 9.4
2019-Oct-15 05:19 121 9.4
2019-Oct-15 05:14 121 9.4
2019-Oct-15 05:09 121 9.4
2019-Oct-15 05:04 121 9.4
2019-Oct-15 04:59 121 9.4
2019-Oct-15 01:04 263 11.1
2019-Oct-15 00:59 263 0 gusting 1 11.1
2019-Oct-15 00:54 263 10.6
2019-Oct-15 00:49 263 10.6
2019-Oct-15 00:44 263 11.1
2019-Oct-15 00:39 263 11.1
2019-Oct-15 00:34 263 11.1
2019-Oct-15 00:29 263 11.1
2019-Oct-15 00:24 263 11.1
2019-Oct-15 00:19 263 11.1
2019-Oct-15 00:14 263 11.1
2019-Oct-15 00:09 263 11.1
2019-Oct-15 00:04 263 11.7
2019-Oct-14 23:59 263 11.7
2019-Oct-14 23:49 263 11.7
2019-Oct-14 23:44 263 12.2
2019-Oct-14 23:39 263 12.2
2019-Oct-14 23:34 263 12.2
2019-Oct-14 23:29 263 12.8
2019-Oct-14 23:24 263 12.8
2019-Oct-14 23:19 263 12.8
2019-Oct-14 23:14 263 13.3
2019-Oct-14 23:09 263 13.3
2019-Oct-14 23:04 263 13.3
2019-Oct-14 22:59 263 13.3
2019-Oct-14 22:54 263 13.3
2019-Oct-14 22:49 263 0 gusting 2 13.3
2019-Oct-14 22:44 263 1 gusting 4 13.9
2019-Oct-14 22:39 263 0 gusting 4 13.9
2019-Oct-14 22:34 255 13.9
2019-Oct-14 22:29 255 0 gusting 2 13.9
2019-Oct-14 22:24 255 13.9
2019-Oct-14 22:19 255 13.9
2019-Oct-14 22:14 255 13.9
2019-Oct-14 22:09 255 13.9
2019-Oct-14 22:04 255 1 gusting 4 13.9
2019-Oct-14 21:59 255 0 gusting 4 13.9
2019-Oct-14 21:54 252 13.9
2019-Oct-14 21:49 252 13.9
2019-Oct-14 21:44 252 13.9
2019-Oct-14 21:39 252 13.9
2019-Oct-14 21:34 252 13.9
2019-Oct-14 21:29 252 13.9
2019-Oct-14 21:24 252 13.9
2019-Oct-14 21:20 252 13.9
2019-Oct-14 21:14 252 1 gusting 4 13.9
2019-Oct-14 21:09 253 13.9
2019-Oct-14 21:04 253 13.9
2019-Oct-14 20:59 253 13.9
2019-Oct-14 20:54 253 13.9
2019-Oct-14 20:49 253 14.4
2019-Oct-14 20:44 253 14.4
2019-Oct-14 20:39 253 14.4
2019-Oct-14 20:34 253 13.9
2019-Oct-14 20:29 253 1 gusting 4 13.9
2019-Oct-14 20:24 205 13.9
2019-Oct-14 20:19 205 13.9
2019-Oct-14 20:14 205 14.4
2019-Oct-14 20:09 205 14.4
2019-Oct-14 20:04 205 14.4
2019-Oct-14 19:59 205 14.4
2019-Oct-14 19:54 205 14.4
2019-Oct-14 19:49 205 14.4
2019-Oct-14 19:44 205 14.4
2019-Oct-14 19:39 205 14.4
2019-Oct-14 19:34 205 14.4
2019-Oct-14 19:29 205 14.4
2019-Oct-14 19:24 205 14.4
2019-Oct-14 19:19 205 14.4
2019-Oct-14 19:14 205 15.0
2019-Oct-14 19:09 200 15.0
2019-Oct-14 19:04 200 0 gusting 2 15.0
2019-Oct-14 18:59 245 0 gusting 4 15.0
2019-Oct-14 18:54 253 0 gusting 4 15.0
2019-Oct-14 18:49 227 0 gusting 5 15.0
2019-Oct-14 18:44 203 0 gusting 4 15.0
2019-Oct-14 18:39 215 0 gusting 4 15.0
2019-Oct-14 18:34 202 0 gusting 4 15.6
2019-Oct-14 18:29 289 1 gusting 6 15.6
2019-Oct-14 18:24 217 2 gusting 5 15.6
2019-Oct-14 18:19 262 0 gusting 6 15.6
2019-Oct-14 18:14 223 1 gusting 6 15.6
2019-Oct-14 18:09 225 1 gusting 5 15.6
2019-Oct-14 18:04 244 1 gusting 5 15.6
2019-Oct-14 17:59 265 1 gusting 7 16.1
2019-Oct-14 17:54 237 1 gusting 5 16.1
2019-Oct-14 17:49 272 3 gusting 7 16.1
2019-Oct-14 17:44 265 3 gusting 6 16.1
2019-Oct-14 17:39 228 1 gusting 8 16.1
2019-Oct-14 17:34 223 1 gusting 8 16.1
2019-Oct-14 17:29 248 2 gusting 6 16.7
2019-Oct-14 17:24 273 4 gusting 6 16.7
2019-Oct-14 17:19 233 2 gusting 6 16.7
2019-Oct-14 17:14 288 2 gusting 17 16.7
2019-Oct-14 17:09 175 1 gusting 8 16.7
2019-Oct-14 17:04 248 3 gusting 7 17.2
2019-Oct-14 16:59 212 2 gusting 7 17.8
2019-Oct-14 16:54 242 2 gusting 10 17.8
2019-Oct-14 16:49 236 3 gusting 10 18.3
2019-Oct-14 16:44 273 5 gusting 13 18.3
2019-Oct-14 16:39 225 4 gusting 13 18.3
2019-Oct-14 16:34 259 4 gusting 8 18.3
2019-Oct-14 16:30 262 5 gusting 10 18.9
2019-Oct-14 16:24 243 2 gusting 11 18.9
2019-Oct-14 16:19 294 4 gusting 11 18.9
2019-Oct-14 16:14 237 4 gusting 10 18.3
2019-Oct-14 16:09 243 6 gusting 12 18.9
2019-Oct-14 16:04 243 4 gusting 10 18.9
2019-Oct-14 15:59 264 4 gusting 10 18.9
2019-Oct-14 15:54 314 3 gusting 8 18.9
2019-Oct-14 15:49 262 2 gusting 7 18.9
2019-Oct-14 15:44 258 7 gusting 17 18.3
2019-Oct-14 15:39 259 4 gusting 10 18.3
2019-Oct-14 15:34 227 4 gusting 8 18.3
2019-Oct-14 15:29 240 6 gusting 13 18.3
2019-Oct-14 15:24 224 3 gusting 12 18.3
2019-Oct-14 15:19 259 5 gusting 13 18.9
2019-Oct-14 15:14 274 6 gusting 17 18.9
2019-Oct-14 15:09 283 4 gusting 13 18.9
2019-Oct-14 15:04 263 5 gusting 15 18.9
2019-Oct-14 14:59 294 4 gusting 15 18.9
2019-Oct-14 14:54 213 4 gusting 17 18.9
2019-Oct-14 14:49 252 4 gusting 17 18.9
2019-Oct-14 14:44 240 3 gusting 10 18.3
2019-Oct-14 14:39 255 4 gusting 13 18.9
2019-Oct-14 14:34 337 3 gusting 7 18.9
2019-Oct-14 14:29 239 5 gusting 13 18.9
2019-Oct-14 14:24 275 4 gusting 12 18.3
2019-Oct-14 14:19 228 6 gusting 13 18.3
2019-Oct-14 14:14 267 6 gusting 17 18.9
2019-Oct-14 14:09 255 6 gusting 17 18.9
2019-Oct-14 14:04 270 3 gusting 17 18.9
2019-Oct-14 13:59 255 4 gusting 8 18.9
2019-Oct-14 13:54 269 2 gusting 13 18.3
2019-Oct-14 13:49 255 6 gusting 13 18.3
2019-Oct-14 13:44 313 2 gusting 10 18.3
2019-Oct-14 13:39 215 5 gusting 15 18.9
2019-Oct-14 13:34 266 3 gusting 13 18.9
2019-Oct-14 13:29 221 2 gusting 8 18.9
2019-Oct-14 13:24 248 1 gusting 8 17.8
2019-Oct-14 13:19 281 5 gusting 12 17.8
2019-Oct-14 13:14 251 2 gusting 6 17.8
2019-Oct-14 13:09 280 1 gusting 8 17.8
2019-Oct-14 13:04 262 5 gusting 13 17.8
2019-Oct-14 12:59 298 4 gusting 11 18.3
2019-Oct-14 12:54 234 5 gusting 8 18.3
2019-Oct-14 12:49 237 1 gusting 8 18.3
2019-Oct-14 12:44 247 4 gusting 6 17.8
2019-Oct-14 12:39 282 2 gusting 6 17.2
2019-Oct-14 12:34 236 2 gusting 7 17.2
2019-Oct-14 12:29 237 2 gusting 10 16.7
2019-Oct-14 12:24 236 4 gusting 8 16.1
2019-Oct-14 12:19 237 1 gusting 6 15.6
2019-Oct-14 12:14 234 3 gusting 11 15.6
2019-Oct-14 12:09 226 6 gusting 11 15.6
2019-Oct-14 12:04 239 6 gusting 13 15.6
2019-Oct-14 11:59 226 6 gusting 11 15.6
2019-Oct-14 11:54 221 4 gusting 6 15.6
2019-Oct-14 11:49 241 5 gusting 10 15.6
2019-Oct-14 11:44 215 3 gusting 10 15.6
2019-Oct-14 11:39 206 2 gusting 5 15.6
2019-Oct-14 11:34 173 4 gusting 6 15.6
2019-Oct-14 11:29 202 0 gusting 4 15.6
2019-Oct-14 11:24 184 15.6
2019-Oct-14 11:19 183 15.6
2019-Oct-14 11:14 209 15.0
2019-Oct-14 11:09 210 15.0
2019-Oct-14 11:04 214 2 gusting 5 15.0
2019-Oct-14 10:59 216 2 gusting 6 15.0
2019-Oct-14 10:54 213 0 gusting 4 15.0
2019-Oct-14 10:49 213 3 gusting 6 15.0
2019-Oct-14 10:44 233 2 gusting 8 15.0
2019-Oct-14 10:39 225 2 gusting 8 15.0
2019-Oct-14 10:34 229 4 gusting 8 15.0
2019-Oct-14 10:29 228 2 gusting 10 15.0
2019-Oct-14 10:24 229 5 gusting 10 15.0
2019-Oct-14 10:19 214 2 gusting 8 15.0
2019-Oct-14 10:14 215 5 gusting 8 15.0
2019-Oct-14 10:09 214 5 gusting 10 15.0
2019-Oct-14 10:04 229 4 gusting 10 15.0
2019-Oct-14 09:59 213 5 gusting 10 15.0
2019-Oct-14 09:54 219 5 gusting 10 15.0
2019-Oct-14 09:49 223 5 gusting 10 15.0
2019-Oct-14 09:44 220 4 gusting 10 15.0
2019-Oct-14 09:39 208 4 gusting 10 15.0
2019-Oct-14 09:34 216 4 gusting 10 15.6
2019-Oct-14 09:29 208 3 gusting 11 15.0
2019-Oct-14 09:24 181 5 gusting 10 15.0
2019-Oct-14 09:19 199 4 gusting 11 15.0
2019-Oct-14 09:14 180 4 gusting 11 15.0
2019-Oct-14 09:09 175 3 gusting 7 15.0
2019-Oct-14 09:04 195 4 gusting 13 15.0
2019-Oct-14 08:59 192 6 gusting 12 15.0
2019-Oct-14 08:54 200 2 gusting 10 15.0
2019-Oct-14 08:49 185 2 gusting 10 15.0
2019-Oct-14 08:44 205 4 gusting 11 15.0
2019-Oct-14 08:39 193 5 gusting 7 15.0
2019-Oct-14 08:34 189 4 gusting 5 15.0
2019-Oct-14 08:29 184 1 gusting 8 14.4
2019-Oct-14 08:24 185 4 gusting 8 14.4
2019-Oct-14 08:19 165 3 gusting 8 14.4
2019-Oct-14 08:14 201 4 gusting 8 14.4
2019-Oct-14 08:09 170 5 gusting 11 14.4
2019-Oct-14 08:04 176 3 gusting 8 14.4
2019-Oct-14 07:59 181 2 gusting 6 14.4
2019-Oct-14 07:54 154 3 gusting 10 13.9
2019-Oct-14 07:49 185 3 gusting 6 13.9
2019-Oct-14 07:44 172 1 gusting 4 13.9
2019-Oct-14 07:39 173 1 gusting 4 13.9
2019-Oct-14 07:34 173 2 gusting 6 13.9
2019-Oct-14 07:29 180 4 gusting 6 13.9
2019-Oct-14 07:24 188 0 gusting 5 13.9
2019-Oct-14 07:19 188 1 gusting 5 13.9
2019-Oct-14 07:14 192 1 gusting 5 13.9
2019-Oct-14 07:09 174 1 gusting 4 13.9
2019-Oct-14 07:04 173 1 gusting 6 13.9
2019-Oct-14 06:59 197 13.9
2019-Oct-14 06:54 199 1 gusting 5 13.9
2019-Oct-14 06:49 211 0 gusting 4 13.9
2019-Oct-14 06:44 211 0 gusting 4 13.9
2019-Oct-14 06:39 205 2 gusting 4 13.9
2019-Oct-14 06:34 221 1 gusting 6 13.9
2019-Oct-14 06:29 224 1 gusting 5 13.9
2019-Oct-14 06:24 225 1 gusting 4 13.9
2019-Oct-14 06:19 225 0 gusting 6 13.9
2019-Oct-14 06:14 213 13.9
2019-Oct-14 06:09 214 1 gusting 2 13.3
2019-Oct-14 06:04 216 1 gusting 5 13.3
2019-Oct-14 05:59 212 0 gusting 4 13.3
2019-Oct-14 05:54 214 1 gusting 6 13.3
2019-Oct-14 05:49 217 1 gusting 5 13.9
2019-Oct-14 05:44 199 0 gusting 5 13.9
2019-Oct-14 05:39 227 2 gusting 6 13.9
2019-Oct-14 05:34 196 1 gusting 5 13.9
2019-Oct-14 05:29 188 0 gusting 5 13.9
2019-Oct-14 05:24 217 1 gusting 4 13.9
2019-Oct-14 05:19 217 13.9
2019-Oct-14 05:14 218 0 gusting 5 13.9
2019-Oct-14 05:09 212 0 gusting 2 13.9
2019-Oct-14 05:04 212 0 gusting 2 13.9
2019-Oct-14 04:59 207 13.9
2019-Oct-14 04:54 207 0 gusting 2 13.9
2019-Oct-14 04:49 202 13.9
2019-Oct-14 04:44 169 2 gusting 5 13.9
2019-Oct-14 04:39 232 1 gusting 6 13.9
2019-Oct-14 04:34 233 4 gusting 6 13.9
2019-Oct-14 04:29 228 13.9
2019-Oct-14 04:24 246 0 gusting 5 13.9
2019-Oct-14 04:19 250 0 gusting 6 13.9
2019-Oct-14 04:14 258 1 gusting 6 13.9
2019-Oct-14 04:09 249 2 gusting 6 13.9
2019-Oct-14 04:04 264 1 gusting 6 13.9
2019-Oct-14 03:59 237 4 gusting 7 14.4
2019-Oct-14 03:54 243 3 gusting 7 14.4
2019-Oct-14 03:49 245 1 gusting 6 14.4
2019-Oct-14 03:44 248 1 gusting 7 14.4
2019-Oct-14 03:39 251 1 gusting 8 14.4
2019-Oct-14 03:34 228 2 gusting 10 14.4
2019-Oct-14 03:29 245 5 gusting 7 14.4
2019-Oct-14 03:24 223 0 gusting 4 14.4
2019-Oct-14 03:19 219 1 gusting 4 14.4
2019-Oct-14 03:14 196 14.4
2019-Oct-14 03:09 210 2 gusting 5 14.4
2019-Oct-14 03:04 270 3 gusting 6 14.4
2019-Oct-14 02:59 244 1 gusting 6 14.4
2019-Oct-14 02:54 248 0 gusting 6 14.4
2019-Oct-14 02:49 239 1 gusting 6 14.4
2019-Oct-14 02:44 244 2 gusting 6 14.4
2019-Oct-14 02:39 285 3 gusting 13 14.4
2019-Oct-14 02:34 259 4 gusting 11 14.4
2019-Oct-14 02:29 250 4 gusting 15 15.0
2019-Oct-14 02:24 261 2 gusting 15 15.0
2019-Oct-14 02:19 279 4 gusting 10 15.0
2019-Oct-14 02:14 254 6 gusting 13 15.0
2019-Oct-14 02:09 252 5 gusting 12 15.0
2019-Oct-14 02:04 265 6 gusting 15 15.6
2019-Oct-14 01:59 270 4 gusting 13 16.1
2019-Oct-14 01:54 290 2 gusting 11 16.1
2019-Oct-14 01:49 286 3 gusting 7 16.7
2019-Oct-14 01:44 225 16.7
2019-Oct-14 01:39 225 1 gusting 6 16.7
2019-Oct-14 01:34 184 0 gusting 4 16.7
2019-Oct-14 01:29 130 1 gusting 4 16.7
2019-Oct-14 01:24 164 16.7
2019-Oct-14 01:19 164 1 gusting 4 17.2
2019-Oct-14 01:14 164 0 gusting 2 17.2
2019-Oct-14 01:09 164 0 gusting 4 17.2
2019-Oct-14 01:04 163 0 gusting 4 17.2
2019-Oct-14 00:59 163 1 gusting 2 16.7
2019-Oct-14 00:54 163 0 gusting 4 16.7
2019-Oct-14 00:49 163 1 gusting 5 16.7
2019-Oct-14 00:44 161 2 gusting 5 16.7
2019-Oct-14 00:39 152 0 gusting 5 17.2
2019-Oct-14 00:34 157 3 gusting 6 17.2
2019-Oct-14 00:29 161 5 gusting 6 17.2
2019-Oct-14 00:24 179 2 gusting 4 17.2
2019-Oct-14 00:19 186 0 gusting 4 17.2
2019-Oct-14 00:14 185 3 gusting 6 17.2
2019-Oct-14 00:09 188 4 gusting 6 17.2
2019-Oct-14 00:04 180 3 gusting 6 17.2
2019-Oct-13 23:59 179 2 gusting 5 17.2
2019-Oct-13 23:54 160 1 gusting 5 17.2
2019-Oct-13 23:49 175 1 gusting 4 17.2
2019-Oct-13 23:44 179 2 gusting 6 17.2
2019-Oct-13 23:39 165 3 gusting 6 17.2
2019-Oct-13 23:34 166 4 gusting 6 17.2
2019-Oct-13 23:29 164 2 gusting 6 17.2
2019-Oct-13 23:24 166 3 gusting 5 17.2
2019-Oct-13 23:19 160 3 gusting 5 17.2
2019-Oct-13 23:14 167 1 gusting 4 17.2
2019-Oct-13 23:09 168 2 gusting 5 17.2
2019-Oct-13 23:04 167 0 gusting 2 17.2
2019-Oct-13 22:59 167 1 gusting 4 17.2
2019-Oct-13 22:54 165 0 gusting 5 17.2
2019-Oct-13 22:49 163 0 gusting 2 17.8
2019-Oct-13 22:44 163 0 gusting 4 17.8
2019-Oct-13 22:39 163 2 gusting 5 17.8
2019-Oct-13 22:34 167 3 gusting 5 17.8
2019-Oct-13 22:29 166 0 gusting 2 17.8
2019-Oct-13 22:24 202 17.8
2019-Oct-13 22:19 202 17.8
2019-Oct-13 22:14 202 18.3
2019-Oct-13 22:09 202 18.3
2019-Oct-13 22:04 202 18.3
2019-Oct-13 21:59 202 18.3
2019-Oct-13 21:54 202 18.9
2019-Oct-13 21:49 202 18.9
2019-Oct-13 21:44 202 18.9
2019-Oct-13 21:39 202 18.9
2019-Oct-13 21:34 202 18.9
2019-Oct-13 21:29 203 18.9
2019-Oct-13 21:24 203 18.9
2019-Oct-13 21:19 203 0 gusting 1 18.9
2019-Oct-13 21:14 203 18.9
2019-Oct-13 21:09 203 0 gusting 2 18.9
2019-Oct-13 21:04 203 18.9